createdAt,value
2017-06-14T00:00:11.269Z,1013.96
2017-06-14T00:05:07.199Z,1013.92
2017-06-14T00:10:02.897Z,1013.99
2017-06-14T00:14:58.803Z,1013.81
2017-06-14T00:19:54.575Z,1013.82
2017-06-14T00:24:50.218Z,1013.88
2017-06-14T00:29:46.019Z,1013.78
2017-06-14T00:34:41.943Z,1013.94
2017-06-14T00:39:38.866Z,1013.92
2017-06-14T00:44:34.385Z,1013.98
2017-06-14T00:49:30.293Z,1014.03
2017-06-14T00:54:26.003Z,1014.02
2017-06-14T00:59:21.978Z,1014.02
2017-06-14T01:04:18.185Z,1014.03
2017-06-14T01:09:13.818Z,1014.04
2017-06-14T01:14:09.787Z,1014.00
2017-06-14T01:19:05.808Z,1013.92
2017-06-14T01:24:01.608Z,1013.91
2017-06-14T01:28:57.371Z,1013.78
2017-06-14T01:33:53.376Z,1013.88
2017-06-14T01:38:49.894Z,1013.86
2017-06-14T01:43:46.225Z,1013.76
2017-06-14T01:48:41.559Z,1013.66
2017-06-14T01:53:37.657Z,1013.74
2017-06-14T01:58:33.474Z,1013.78
2017-06-14T02:03:30.133Z,1013.79
2017-06-14T02:08:25.684Z,1013.77
2017-06-14T02:13:21.329Z,1013.86
2017-06-14T02:18:17.369Z,1013.87
2017-06-14T02:23:13.504Z,1013.80
2017-06-14T02:28:09.913Z,1013.84
2017-06-14T02:33:05.721Z,1013.77
2017-06-14T02:38:02.322Z,1013.78
2017-06-14T02:42:57.778Z,1013.71
2017-06-14T02:47:53.882Z,1013.72
2017-06-14T02:52:49.520Z,1013.74
2017-06-14T02:57:45.247Z,1013.66
2017-06-14T03:02:41.595Z,1013.58
2017-06-14T03:07:36.970Z,1013.58
2017-06-14T03:12:33.733Z,1013.69
2017-06-14T03:17:29.179Z,1013.68
2017-06-14T03:22:25.058Z,1013.69
2017-06-14T03:27:22.566Z,1013.84
2017-06-14T03:32:17.855Z,1013.82
2017-06-14T03:37:13.992Z,1013.69
2017-06-14T03:42:10.474Z,1013.97
2017-06-14T03:47:06.085Z,1014.07
2017-06-14T03:52:02.433Z,1014.14
2017-06-14T03:56:58.283Z,1014.12
2017-06-14T04:01:54.065Z,1014.14
2017-06-14T04:06:51.200Z,1014.09
2017-06-14T04:11:46.652Z,1014.18
2017-06-14T04:16:42.616Z,1014.16
2017-06-14T04:21:39.478Z,1014.27
2017-06-14T04:26:34.982Z,1014.33
2017-06-14T04:31:30.793Z,1014.39
2017-06-14T04:36:26.934Z,1014.58
2017-06-14T04:41:23.716Z,1014.57
2017-06-14T04:46:21.459Z,1014.50
2017-06-14T04:51:17.974Z,1014.64
2017-06-14T04:56:15.831Z,1014.65
2017-06-14T05:01:13.219Z,1014.57
2017-06-14T05:06:10.429Z,1014.45
2017-06-14T05:11:06.438Z,1014.56
2017-06-14T05:16:03.259Z,1014.62
2017-06-14T05:20:59.902Z,1014.61
2017-06-14T05:25:56.672Z,1014.65
2017-06-14T05:30:52.911Z,1014.64
2017-06-14T05:35:49.125Z,1014.61
2017-06-14T05:40:45.108Z,1014.66
2017-06-14T05:45:41.390Z,1014.64
2017-06-14T05:50:36.886Z,1014.62
2017-06-14T05:55:33.951Z,1014.71
2017-06-14T06:00:29.344Z,1014.78
2017-06-14T06:05:24.424Z,1014.80
2017-06-14T06:10:19.607Z,1014.84
2017-06-14T06:15:15.112Z,1014.82
2017-06-14T06:20:10.069Z,1014.87
2017-06-14T06:25:06.914Z,1014.77
2017-06-14T06:30:02.737Z,1014.79
2017-06-14T06:34:58.476Z,1014.80
2017-06-14T06:39:54.253Z,1014.71
2017-06-14T06:44:50.393Z,1014.77
2017-06-14T06:49:46.121Z,1014.77
2017-06-14T06:54:43.112Z,1014.72
2017-06-14T06:59:38.896Z,1014.68
2017-06-14T07:04:34.911Z,1014.84
2017-06-14T07:09:31.924Z,1014.78
2017-06-14T07:14:27.634Z,1014.87
2017-06-14T07:19:24.116Z,1014.83
2017-06-14T07:24:19.983Z,1014.76
2017-06-14T07:29:15.676Z,1014.72
2017-06-14T07:34:11.758Z,1014.64
2017-06-14T07:39:08.508Z,1014.71
2017-06-14T07:44:04.846Z,1014.60
2017-06-14T07:49:02.100Z,1014.75
2017-06-14T07:54:03.316Z,1014.70
2017-06-14T07:59:01.556Z,1014.80
2017-06-14T08:03:58.738Z,1014.81
2017-06-14T08:08:56.179Z,1014.64
2017-06-14T08:13:53.561Z,1014.50
2017-06-14T08:18:52.111Z,1014.52
2017-06-14T08:23:48.812Z,1014.57
2017-06-14T08:28:46.780Z,1014.45
2017-06-14T08:33:43.128Z,1014.41
2017-06-14T08:38:39.526Z,1014.49
2017-06-14T08:43:36.395Z,1014.41
2017-06-14T08:48:32.831Z,1014.53
2017-06-14T08:53:28.911Z,1014.39
2017-06-14T08:58:25.433Z,1014.37
2017-06-14T09:03:21.525Z,1014.45
2017-06-14T09:08:17.550Z,1014.41
2017-06-14T09:13:14.005Z,1014.36
2017-06-14T09:18:10.040Z,1014.40
2017-06-14T09:23:05.834Z,1014.46
2017-06-14T09:28:02.314Z,1014.38
2017-06-14T09:32:59.745Z,1014.40
2017-06-14T09:37:55.975Z,1014.36
2017-06-14T09:42:52.346Z,1014.40
2017-06-14T09:47:49.894Z,1014.39
2017-06-14T09:52:45.741Z,1014.34
2017-06-14T09:57:42.162Z,1014.31
2017-06-14T10:02:37.761Z,1014.27
2017-06-14T10:07:34.514Z,1014.18
2017-06-14T10:12:30.080Z,1014.21
2017-06-14T10:17:27.398Z,1014.15
2017-06-14T10:22:22.734Z,1014.08
2017-06-14T10:27:19.868Z,1014.11
2017-06-14T10:32:16.558Z,1013.91
2017-06-14T10:37:13.187Z,1013.95
2017-06-14T10:42:08.446Z,1013.79
2017-06-14T10:47:04.879Z,1013.81
2017-06-14T10:52:00.978Z,1013.69
2017-06-14T10:56:57.570Z,1013.62
2017-06-14T11:01:53.617Z,1013.59
2017-06-14T11:06:51.267Z,1013.55
2017-06-14T11:11:47.324Z,1013.46
2017-06-14T11:16:43.037Z,1013.43
2017-06-14T11:21:39.637Z,1013.33
2017-06-14T11:26:36.117Z,1013.31
2017-06-14T11:31:32.566Z,1013.27
2017-06-14T11:36:29.928Z,1013.26
2017-06-14T11:41:29.136Z,1013.25
2017-06-14T11:46:25.215Z,1013.12
2017-06-14T11:51:23.055Z,1013.14
2017-06-14T11:56:20.288Z,1013.22
2017-06-14T12:01:16.593Z,1013.15
2017-06-14T12:06:12.417Z,1013.02
2017-06-14T12:11:09.485Z,1012.94
2017-06-14T12:16:05.494Z,1013.04
2017-06-14T12:21:03.238Z,1013.03
2017-06-14T12:25:57.994Z,1013.02
2017-06-14T12:30:53.417Z,1012.85
2017-06-14T12:35:49.808Z,1012.83
2017-06-14T12:40:47.146Z,1012.72
2017-06-14T12:50:44.248Z,1012.76
2017-06-14T12:55:40.067Z,1012.64
2017-06-14T13:00:36.425Z,1012.65
2017-06-14T13:05:32.422Z,1012.69
2017-06-14T13:10:27.321Z,1012.56
2017-06-14T13:15:23.117Z,1012.62
2017-06-14T13:20:18.723Z,1012.67
2017-06-14T13:25:14.886Z,1012.79
2017-06-14T13:30:10.397Z,1012.61
2017-06-14T13:35:14.995Z,1012.41
2017-06-14T13:40:09.355Z,1012.37
2017-06-14T13:45:05.669Z,1012.32
2017-06-14T13:50:02.322Z,1012.34
2017-06-14T13:54:58.481Z,1012.22
2017-06-14T13:59:53.805Z,1012.24
2017-06-14T14:04:50.249Z,1012.16
2017-06-14T14:09:45.026Z,1012.15
2017-06-14T14:14:40.378Z,1012.07
2017-06-14T14:19:35.516Z,1012.08
2017-06-14T14:24:30.767Z,1011.97
2017-06-14T14:29:26.471Z,1011.87
2017-06-14T14:34:22.150Z,1011.89
2017-06-14T14:39:17.967Z,1011.81
2017-06-14T14:44:14.726Z,1011.76
2017-06-14T14:49:10.259Z,1011.74
2017-06-14T14:54:06.032Z,1011.78
2017-06-14T14:59:01.792Z,1011.70
2017-06-14T15:03:57.909Z,1011.56
2017-06-14T15:08:53.369Z,1011.54
2017-06-14T15:13:49.147Z,1011.51
2017-06-14T15:18:45.076Z,1011.43
2017-06-14T15:23:41.019Z,1011.38
2017-06-14T15:28:37.455Z,1011.32
2017-06-14T15:33:33.493Z,1011.35
2017-06-14T15:38:30.284Z,1011.30
2017-06-14T15:43:25.833Z,1011.24
2017-06-14T15:48:21.835Z,1011.20
2017-06-14T15:53:17.790Z,1011.21
2017-06-14T15:58:13.877Z,1011.21
2017-06-14T16:03:09.789Z,1011.28
2017-06-14T16:08:05.971Z,1011.18
2017-06-14T16:13:01.875Z,1011.10
2017-06-14T16:17:58.905Z,1010.91
2017-06-14T16:22:54.691Z,1010.92
2017-06-14T16:27:50.602Z,1010.84
2017-06-14T16:32:47.685Z,1010.80
2017-06-14T16:37:43.651Z,1010.77
2017-06-14T16:42:39.639Z,1010.78
2017-06-14T16:47:36.304Z,1010.75
2017-06-14T16:52:32.240Z,1010.84
2017-06-14T16:57:28.201Z,1010.72
2017-06-14T17:02:24.033Z,1010.74
2017-06-14T17:07:20.053Z,1010.62
2017-06-14T17:12:17.293Z,1010.61
2017-06-14T17:17:12.888Z,1010.64
2017-06-14T17:22:08.757Z,1010.62
2017-06-14T17:27:04.901Z,1010.50
2017-06-14T17:32:01.221Z,1010.45
2017-06-14T17:36:56.836Z,1010.52
2017-06-14T17:41:53.239Z,1010.51
2017-06-14T17:46:49.123Z,1010.54
2017-06-14T17:51:44.892Z,1010.63
2017-06-14T17:56:40.878Z,1010.54
2017-06-14T18:01:36.707Z,1010.55
2017-06-14T18:06:32.562Z,1010.46
2017-06-14T18:11:28.587Z,1010.44
2017-06-14T18:16:24.576Z,1010.42
2017-06-14T18:21:20.454Z,1010.40
2017-06-14T18:26:16.446Z,1010.46
2017-06-14T18:31:12.535Z,1010.38
2017-06-14T18:36:09.634Z,1010.37
2017-06-14T18:41:05.165Z,1010.32
2017-06-14T18:46:00.800Z,1010.24
2017-06-14T18:50:57.972Z,1010.22
2017-06-14T18:55:54.688Z,1010.19
2017-06-14T19:00:51.122Z,1010.30
2017-06-14T19:05:46.746Z,1010.28
2017-06-14T19:10:42.550Z,1010.26
2017-06-14T19:15:38.409Z,1010.25
2017-06-14T19:20:34.230Z,1010.26
2017-06-14T19:25:30.424Z,1010.37
2017-06-14T19:30:27.106Z,1010.43
2017-06-14T19:35:23.001Z,1010.45
2017-06-14T19:40:19.377Z,1010.42
2017-06-14T19:45:14.835Z,1010.40
2017-06-14T19:50:11.946Z,1010.48
2017-06-14T19:55:09.099Z,1010.46
2017-06-14T20:00:04.407Z,1010.42
2017-06-14T20:05:00.703Z,1010.51
2017-06-14T20:09:56.675Z,1010.52
2017-06-14T20:14:52.126Z,1010.53
2017-06-14T20:19:48.280Z,1010.52
2017-06-14T20:24:45.726Z,1010.51
2017-06-14T20:29:41.423Z,1010.65
2017-06-14T20:34:37.189Z,1010.68
2017-06-14T20:39:34.153Z,1010.62
2017-06-14T20:44:30.509Z,1010.58
2017-06-14T20:49:26.243Z,1010.69
2017-06-14T20:54:22.266Z,1010.60
2017-06-14T20:59:19.144Z,1010.62
2017-06-14T21:04:14.895Z,1010.56
2017-06-14T21:09:10.694Z,1010.68
2017-06-14T21:14:06.582Z,1010.53
2017-06-14T21:19:02.367Z,1010.61
2017-06-14T21:23:58.611Z,1010.57
2017-06-14T21:28:54.712Z,1010.68
2017-06-14T21:33:51.462Z,1010.71
2017-06-14T21:38:47.159Z,1010.65
2017-06-14T21:43:43.958Z,1010.75
2017-06-14T21:48:39.643Z,1010.70
2017-06-14T21:53:35.848Z,1010.79
2017-06-14T21:58:31.403Z,1010.84
2017-06-14T22:03:28.740Z,1010.66
2017-06-14T22:08:24.255Z,1010.63
2017-06-14T22:13:20.615Z,1010.63
2017-06-14T22:18:16.331Z,1010.58
2017-06-14T22:23:12.261Z,1010.73
2017-06-14T22:28:08.007Z,1010.66
2017-06-14T22:33:03.737Z,1010.67
2017-06-14T22:37:59.400Z,1010.65
2017-06-14T22:42:55.111Z,1010.69
2017-06-14T22:47:51.252Z,1010.66
2017-06-14T22:52:46.812Z,1010.64
2017-06-14T22:57:43.061Z,1010.59
2017-06-14T23:02:38.931Z,1010.61
2017-06-14T23:07:35.728Z,1010.53
2017-06-14T23:12:31.241Z,1010.53
2017-06-14T23:17:27.262Z,1010.54
2017-06-14T23:22:24.360Z,1010.51
2017-06-14T23:27:20.101Z,1010.48
2017-06-14T23:32:16.216Z,1010.47
2017-06-14T23:37:11.937Z,1010.39
2017-06-14T23:42:07.860Z,1010.41
2017-06-14T23:47:03.804Z,1010.40
2017-06-14T23:51:59.555Z,1010.42
2017-06-14T23:56:55.512Z,1010.31
